Language selection

My Weather Profile Weather Topics  | 

Pacific - North Coast: Past 24 Hour Conditions

 

South Hecate Strait - 46185

01:00 PM PST 04 February 2023Buoy position: 52.53N 130.09W
Disclaimer

This table is a summary of hourly weather conditions for the past 24 hours.
Please note that these observations might not always be representative of weather conditions over their associated marine area.

Date / Time
(PST)
Wind(knots) Wave height(m) Wave period(s) Pressure(kPa) Air tempC) Water tempC)
04 February 2023
13:00 SE 30 gust 37 5.9 11.1 99.7 8 8
12:00 ESE 30 gust 37 5.8 10.2 99.7 8 8
11:00 ESE 28 gust 35 5.9 9.5 99.8 8 8
10:00 ESE 30 gust 39 5.4 9.5 99.8 8 8
9:00 ESE 31 gust 40 5.5 8.8 99.8 8 8
8:00 SE 31 gust 42 5.3 9.1 99.8 8 8
7:00 ESE 31 gust 40 5.0 10.2 99.8 8 8
6:00 SE 31 gust 43 4.6 7.8 99.8 8 8
5:00 ESE 29 gust 36 4.2 7.1 99.9 8 8
4:00 SE 30 gust 38 3.6 12.8 99.9 8 8
3:00 SE 27 gust 35 2.8 11.6 100.1 7 8
2:00 SE 21 gust 25 3.0 12.8 100.1 8 8
1:00 SSE 21 gust 25 3.1 12.8 100.2 8 8
0:00 S 18 gust 23 3.6 12.2 100.1 7 8
03 February 2023
23:00 SE 23 gust 29 3.5 11.6 100.1 7 8
22:00 SE 21 gust 25 3.4 11.1 100.0 8 8
21:00 ESE 24 gust 29 3.4 11.1 100.0 7 8
20:00 SE 25 gust 30 3.4 10.7 100.0 8 8
19:00 SE 24 gust 30 3.3 10.2 99.9 8 8
18:00 SE 25 gust 32 3.2 9.8 99.9 8 8
17:00 SSE 19 gust 24 3.2 10.7 99.9 8 8
16:00 SSE 22 gust 27 3.7 10.2 99.8 8 8
15:00 SSE 23 gust 27 3.5 9.1 99.8 8 8
14:00 SE 22 gust 27 4.1 10.7 99.8 9 8
13:00 SE 24 gust 31 4.4 10.7 99.8 9 8

Zoom-in to make a selection

Map of Pacific - North Coast marine weather areas Middle Nomad - 46004 South Nomad - 46036 Dixon Entrance Central - 46145 South Moresby - 46147 Nanakwa Shoal - 46181 North Hecate Strait - 46183 North Nomad - 46184 South Hecate Strait - 46185 West Sea Otter - 46204 West Dixon Entrance - 46205 East Dellwood - 46207 West Moresby - 46208 Sartine Island Cape St.James Kindakun Rocks Langara Island Masset Municipal Airport Rose Spit Sandspit Airport Bella Bella Airport Bella Coola Airport Bonilla Island Cathedral Point Cumshewa Island Grey Islet Holland Rock Lucy Islands Lightstation Prince Rupert Airport
Legend:
buoy Buoy
land station Land Station

Pacific - North Coast Area

Another Region

What we are doing

Date modified: